createdAt,value
2018-11-26T00:02:04.265Z,95250.00
2018-11-26T00:07:06.951Z,95248.00
2018-11-26T00:12:09.386Z,95257.00
2018-11-26T00:17:11.853Z,95240.00
2018-11-26T00:22:14.359Z,95243.00
2018-11-26T00:27:16.773Z,95235.00
2018-11-26T00:32:19.233Z,95221.00
2018-11-26T00:37:21.681Z,95219.00
2018-11-26T00:42:24.180Z,95227.00
2018-11-26T00:47:26.597Z,95223.00
2018-11-26T00:52:29.105Z,95214.00
2018-11-26T00:57:31.570Z,95217.00
2018-11-26T01:02:34.026Z,95221.00
2018-11-26T01:07:36.520Z,95217.00
2018-11-26T01:12:39.055Z,95207.00
2018-11-26T01:17:41.486Z,95204.00
2018-11-26T01:22:43.960Z,95188.00
2018-11-26T01:27:46.437Z,95189.00
2018-11-26T01:32:48.867Z,95188.00
2018-11-26T01:37:51.364Z,95188.00
2018-11-26T01:42:53.824Z,95196.00
2018-11-26T01:47:56.325Z,95192.00
2018-11-26T01:52:58.780Z,95186.00
2018-11-26T01:58:01.878Z,95182.00
2018-11-26T02:03:04.369Z,95190.00
2018-11-26T02:08:06.835Z,95195.00
2018-11-26T02:13:10.354Z,95194.00
2018-11-26T02:18:12.843Z,95187.00
2018-11-26T02:23:15.381Z,95195.00
2018-11-26T02:28:17.837Z,95194.00
2018-11-26T02:33:20.331Z,95189.00
2018-11-26T02:38:22.766Z,95188.00
2018-11-26T02:43:25.261Z,95187.00
2018-11-26T02:48:27.686Z,95186.00
2018-11-26T02:53:30.192Z,95188.00
2018-11-26T02:58:32.661Z,95180.00
2018-11-26T03:03:35.082Z,95180.00
2018-11-26T03:08:37.552Z,95179.00
2018-11-26T03:13:39.989Z,95184.00
2018-11-26T03:18:42.480Z,95190.00
2018-11-26T03:23:44.952Z,95191.00
2018-11-26T03:28:47.412Z,95186.00
2018-11-26T03:33:49.906Z,95178.00
2018-11-26T03:38:53.813Z,95188.00
2018-11-26T03:43:56.326Z,95179.00
2018-11-26T03:48:58.804Z,95179.00
2018-11-26T03:54:01.245Z,95173.00
2018-11-26T03:59:03.708Z,95178.00
2018-11-26T04:04:06.188Z,95178.00
2018-11-26T04:09:08.717Z,95177.00
2018-11-26T04:14:11.141Z,95171.00
2018-11-26T04:19:14.643Z,95172.00
2018-11-26T04:24:17.074Z,95176.00
2018-11-26T04:29:19.530Z,95164.00
2018-11-26T04:34:21.969Z,95168.00
2018-11-26T04:39:24.429Z,95161.00
2018-11-26T04:44:26.893Z,95164.00
2018-11-26T04:49:29.343Z,95175.00
2018-11-26T04:54:31.887Z,95173.00
2018-11-26T04:59:35.448Z,95168.00
2018-11-26T05:04:37.920Z,95171.00
2018-11-26T05:09:40.426Z,95165.00
2018-11-26T05:14:43.238Z,95166.00
2018-11-26T05:19:45.695Z,95162.00
2018-11-26T05:24:48.158Z,95171.00
2018-11-26T05:29:50.681Z,95169.00
2018-11-26T05:34:53.300Z,95163.00
2018-11-26T05:39:55.791Z,95169.00
2018-11-26T05:44:58.270Z,95172.00
2018-11-26T05:50:01.019Z,95167.00
2018-11-26T05:55:03.653Z,95166.00
2018-11-26T06:00:10.978Z,95166.00
2018-11-26T06:05:13.428Z,95172.00
2018-11-26T06:10:15.856Z,95171.00
2018-11-26T06:15:18.326Z,95172.00
2018-11-26T06:20:20.809Z,95182.00
2018-11-26T06:25:23.347Z,95175.00
2018-11-26T06:30:25.932Z,95171.00
2018-11-26T06:35:28.409Z,95187.00
2018-11-26T06:40:30.940Z,95178.00
2018-11-26T06:45:33.822Z,95176.00
2018-11-26T06:50:36.986Z,95187.00
2018-11-26T06:55:39.657Z,95187.00
2018-11-26T07:00:42.096Z,95203.00
2018-11-26T07:05:51.748Z,95205.00
2018-11-26T07:10:54.297Z,95213.00
2018-11-26T07:15:56.796Z,95214.00
2018-11-26T07:20:59.269Z,95223.00
2018-11-26T07:26:02.647Z,95227.00
2018-11-26T07:31:05.507Z,95228.00
2018-11-26T07:36:11.394Z,95224.00
2018-11-26T07:41:10.499Z,95233.00
2018-11-26T07:46:12.938Z,95224.00
2018-11-26T07:51:16.933Z,95238.00
2018-11-26T07:56:19.601Z,95238.00
2018-11-26T08:01:22.141Z,95237.00
2018-11-26T08:06:26.414Z,95251.00
2018-11-26T08:11:28.847Z,95247.00
2018-11-26T08:16:31.297Z,95262.00
2018-11-26T08:21:33.796Z,95256.00
2018-11-26T08:26:36.305Z,95263.00
2018-11-26T14:32:19.222Z,95349.00
2018-11-26T14:37:21.703Z,95356.00
2018-11-26T14:42:24.160Z,95350.00
2018-11-26T14:47:26.637Z,95360.00
2018-11-26T14:52:29.177Z,95357.00
2018-11-26T14:57:31.620Z,95370.00
2018-11-26T15:02:34.103Z,95372.00
2018-11-26T15:07:36.611Z,95374.00
2018-11-26T15:12:39.139Z,95377.00
2018-11-26T15:17:42.360Z,95381.00
2018-11-26T15:22:44.883Z,95381.00
2018-11-26T15:27:47.359Z,95376.00
2018-11-26T15:32:49.855Z,95386.00
2018-11-26T15:37:52.372Z,95392.00
2018-11-26T15:42:56.146Z,95397.00
2018-11-26T15:47:58.720Z,95396.00
2018-11-26T15:53:01.223Z,95402.00
2018-11-26T15:58:03.862Z,95408.00
2018-11-26T16:03:06.758Z,95417.00
2018-11-26T16:08:10.954Z,95414.00
2018-11-26T16:13:14.882Z,95419.00
2018-11-26T16:18:20.673Z,95419.00
2018-11-26T16:23:23.177Z,95415.00
2018-11-26T16:28:26.697Z,95423.00
2018-11-26T16:33:30.179Z,95434.00
2018-11-26T16:38:34.294Z,95432.00
2018-11-26T16:43:36.825Z,95440.00
2018-11-26T16:48:39.308Z,95448.00
2018-11-26T16:53:42.004Z,95449.00
2018-11-26T16:58:44.515Z,95450.00
2018-11-26T17:03:46.938Z,95464.00
2018-11-26T17:08:49.528Z,95464.00
2018-11-26T17:13:52.027Z,95471.00
2018-11-26T17:18:54.535Z,95468.00
2018-11-26T17:23:58.828Z,95475.00
2018-11-26T17:29:01.294Z,95485.00
2018-11-26T17:34:04.210Z,95484.00
2018-11-26T17:39:08.113Z,95484.00
2018-11-26T17:44:10.815Z,95488.00
2018-11-26T17:49:13.270Z,95491.00
2018-11-26T17:54:15.795Z,95500.00
2018-11-26T17:59:18.268Z,95502.00
2018-11-26T18:04:20.706Z,95509.00
2018-11-26T18:09:23.203Z,95514.00
2018-11-26T18:14:25.659Z,95514.00
2018-11-26T18:19:28.138Z,95521.00
2018-11-26T18:24:30.602Z,95519.00
2018-11-26T18:29:33.087Z,95527.00
2018-11-26T18:34:37.101Z,95533.00
2018-11-26T18:39:39.595Z,95535.00
2018-11-26T18:44:42.131Z,95540.00
2018-11-26T18:49:44.600Z,95540.00
2018-11-26T18:54:47.254Z,95538.00
2018-11-26T18:59:49.727Z,95542.00
2018-11-26T19:04:52.272Z,95561.00
2018-11-26T19:09:54.787Z,95564.00
2018-11-26T19:14:57.325Z,95568.00
2018-11-26T19:20:01.187Z,95577.00
2018-11-26T19:25:04.155Z,95576.00
2018-11-26T19:30:10.086Z,95585.00
2018-11-26T19:35:13.952Z,95586.00
2018-11-26T19:40:17.134Z,95585.00
2018-11-26T19:45:20.375Z,95586.00
2018-11-26T19:50:22.911Z,95580.00
2018-11-26T19:55:26.105Z,95586.00
2018-11-26T20:00:29.879Z,95595.00
2018-11-26T20:05:46.083Z,95593.00
2018-11-26T20:10:48.580Z,95600.00
2018-11-26T20:15:51.395Z,95612.00
2018-11-26T20:20:53.879Z,95611.00
2018-11-26T20:25:56.361Z,95623.00
2018-11-26T20:30:59.416Z,95630.00
2018-11-26T20:36:01.919Z,95631.00
2018-11-26T20:41:05.692Z,95632.00
2018-11-26T20:46:08.338Z,95638.00
2018-11-26T20:51:10.990Z,95643.00
2018-11-26T20:56:16.822Z,95643.00
2018-11-26T21:01:19.254Z,95646.00
2018-11-26T21:06:21.800Z,95664.00
2018-11-26T21:11:24.326Z,95665.00
2018-11-26T21:16:26.805Z,95660.00
2018-11-26T21:21:29.455Z,95668.00
2018-11-26T21:26:33.786Z,95671.00
2018-11-26T21:31:36.395Z,95670.00
2018-11-26T21:36:38.972Z,95672.00
2018-11-26T21:41:41.547Z,95681.00
2018-11-26T21:46:44.099Z,95676.00
2018-11-26T21:51:46.609Z,95682.00
2018-11-26T21:56:49.703Z,95691.00
2018-11-26T22:01:52.383Z,95685.00
2018-11-26T22:06:54.944Z,95692.00
2018-11-26T22:11:57.455Z,95687.00
2018-11-26T22:16:59.984Z,95700.00
2018-11-26T22:22:02.479Z,95705.00
2018-11-26T22:27:05.027Z,95723.00
2018-11-26T22:32:07.538Z,95720.00
2018-11-26T22:37:10.019Z,95714.00
2018-11-26T22:42:12.463Z,95728.00
2018-11-26T22:47:15.033Z,95726.00
2018-11-26T22:52:17.476Z,95735.00
2018-11-26T22:57:19.979Z,95732.00
2018-11-26T23:02:22.391Z,95739.00
2018-11-26T23:07:24.900Z,95749.00
2018-11-26T23:12:27.359Z,95743.00
2018-11-26T23:17:29.877Z,95754.00
2018-11-26T23:22:32.334Z,95753.00
2018-11-26T23:27:34.801Z,95756.00
2018-11-26T23:32:37.313Z,95754.00
2018-11-26T23:37:39.759Z,95755.00
2018-11-26T23:42:42.240Z,95764.00
2018-11-26T23:47:44.736Z,95763.00
2018-11-26T23:52:47.278Z,95763.00
2018-11-26T23:57:49.850Z,95757.00
